Oasis of the Seas — C6XS7 — position and weather

sailwx.info

Track history (hours):
 
Tides and Currents Weather Stations Pressure Air Temp Water Temp Dewpoint Dewpoint Depression Visibility Wind Speed Wind Dir Waves Ship Positions

Oasis of the Seas

Last reported at 2015-Sep-04 06:00 UTC. Time now 2015-Sep-04 21:00 UTC.
Position N 21°54' W 085°30'.

Length 360 m; draft 9.4 m.

Type: Passenger vessel. MMSI: 311020600.

Wind from 090 at 12 knots

Barometer 1013.0 mb
Air temperature 29.0 ° C
Visibility: greater than 5.4 NM
Dewpoint 25.7 ° C
Water temperature 32.3 ° C

Date/timePositionNaut miles runAvg speedWind from/ knotsBaromVisibWave heightAir tempDewpointWater temp
2015-Sep-04 06:00N 21°54' W 085°30'90 3.8 090 / 121013.0 5.4 29.025.732.3
2015-Sep-03 06:00N 20°24' W 085°36'59612.4 050 / 91015.0 5.4 29.026.332.0
2015-Sep-01 06:00N 19°18' W 075°06'112 4.7 040 / 181016.010.8 29.327.631.4
2015-Aug-31 06:00N 20°24' W 073°30'38215.9 090 / 271014.010.8 29.027.031.1
2015-Aug-30 06:00N 23°48' W 079°18'11116.4 150 / 241012.0 5.4 29.027.031.2
2015-Aug-29 23:11N 25°34' W 079°55'1015.0
2015-Aug-29 22:33N 25°43' W 079°58'1616.2
2015-Aug-29 21:33N 25°59' W 080°03'8 7.6
2015-Aug-29 20:33N 26°05' W 080°07'0 0.0
2015-Aug-29 19:31N 26°05' W 080°07'0 0.0
2015-Aug-29 18:31N 26°05' W 080°07'0 0.0
2015-Aug-29 17:31N 26°05' W 080°07'0 0.0
2015-Aug-29 16:31N 26°05' W 080°07'0 0.0
2015-Aug-29 15:31N 26°05' W 080°07'0 0.0
2015-Aug-29 14:31N 26°05' W 080°07'0 0.0
2015-Aug-29 13:31N 26°05' W 080°07'0 0.0
2015-Aug-29 12:31N 26°05' W 080°07'0 0.0
2015-Aug-29 11:28N 26°05' W 080°07'0 0.0
2015-Aug-29 10:31N 26°05' W 080°07'0 0.2
2015-Aug-29 09:34N 26°05' W 080°07'9 8.8
2015-Aug-29 08:33N 25°60' W 079°59'1818.4
2015-Aug-29 07:33N 25°42' W 079°56'1918.9
2015-Aug-29 06:33N 25°23' W 079°56'48515.5
2015-Aug-27 23:18N 20°34' W 086°59'5 6.0
2015-Aug-27 22:32N 20°29' W 086°59'0 0.0
2015-Aug-27 21:29N 20°29' W 086°59'0 0.0
2015-Aug-27 20:26N 20°29' W 086°59'0 0.0
2015-Aug-27 19:32N 20°29' W 086°59'0 0.0
2015-Aug-27 18:29N 20°29' W 086°59'0 0.0
2015-Aug-27 17:32N 20°29' W 086°59'0 0.0
2015-Aug-27 16:32N 20°29' W 086°59'0 0.0
2015-Aug-27 15:32N 20°29' W 086°59'0 0.0
2015-Aug-27 14:32N 20°29' W 086°59'0 0.0
2015-Aug-27 13:32N 20°29' W 086°59'0 0.0
2015-Aug-27 12:32N 20°29' W 086°59'0 0.4
2015-Aug-27 11:33N 20°29' W 086°59'53 8.1
2015-Aug-27 05:00N 19°36' W 087°06'23 1.0 160 / 81015.0 5.4 29.727.532.1
2015-Aug-26 06:00N 19°36' W 086°42'33614.0 1013.010.8 29.527.531.8
2015-Aug-25 06:00N 23°42' W 082°36'   120 / 131013.0 5.4 0.530.028.031.8
Track history (hours):
 
Tides and Currents Weather Stations Pressure Air Temp Water Temp Dewpoint Dewpoint Depression Visibility Wind Speed Wind Dir Waves Ship Positions

Oasis of the Seas

Last reported at 2015-Sep-04 06:00 UTC. Time now 2015-Sep-04 21:00 UTC.
Position N 21°54' W 085°30'.

Length 360 m; draft 9.4 m.

Type: Passenger vessel. MMSI: 311020600.

Wind from 090 at 12 knots

Barometer 1013.0 mb
Air temperature 29.0 ° C
Visibility: greater than 5.4 NM
Dewpoint 25.7 ° C
Water temperature 32.3 ° C

Date/timePositionNaut miles runAvg speedWind from/ knotsBaromVisibWave heightAir tempDewpointWater temp
2015-Sep-04 06:00N 21°54' W 085°30'90 3.8 090 / 121013.0 5.4 29.025.732.3
2015-Sep-03 06:00N 20°24' W 085°36'59612.4 050 / 91015.0 5.4 29.026.332.0
2015-Sep-01 06:00N 19°18' W 075°06'112 4.7 040 / 181016.010.8 29.327.631.4
2015-Aug-31 06:00N 20°24' W 073°30'38215.9 090 / 271014.010.8 29.027.031.1
2015-Aug-30 06:00N 23°48' W 079°18'11116.4 150 / 241012.0 5.4 29.027.031.2
2015-Aug-29 23:11N 25°34' W 079°55'1015.0
2015-Aug-29 22:33N 25°43' W 079°58'1616.2
2015-Aug-29 21:33N 25°59' W 080°03'8 7.6
2015-Aug-29 20:33N 26°05' W 080°07'0 0.0
2015-Aug-29 19:31N 26°05' W 080°07'0 0.0
2015-Aug-29 18:31N 26°05' W 080°07'0 0.0
2015-Aug-29 17:31N 26°05' W 080°07'0 0.0
2015-Aug-29 16:31N 26°05' W 080°07'0 0.0
2015-Aug-29 15:31N 26°05' W 080°07'0 0.0
2015-Aug-29 14:31N 26°05' W 080°07'0 0.0
2015-Aug-29 13:31N 26°05' W 080°07'0 0.0
2015-Aug-29 12:31N 26°05' W 080°07'0 0.0
2015-Aug-29 11:28N 26°05' W 080°07'0 0.0
2015-Aug-29 10:31N 26°05' W 080°07'0 0.2
2015-Aug-29 09:34N 26°05' W 080°07'9 8.8
2015-Aug-29 08:33N 25°60' W 079°59'1818.4
2015-Aug-29 07:33N 25°42' W 079°56'1918.9
2015-Aug-29 06:33N 25°23' W 079°56'48515.5
2015-Aug-27 23:18N 20°34' W 086°59'5 6.0
2015-Aug-27 22:32N 20°29' W 086°59'0 0.0
2015-Aug-27 21:29N 20°29' W 086°59'0 0.0
2015-Aug-27 20:26N 20°29' W 086°59'0 0.0
2015-Aug-27 19:32N 20°29' W 086°59'0 0.0
2015-Aug-27 18:29N 20°29' W 086°59'0 0.0
2015-Aug-27 17:32N 20°29' W 086°59'0 0.0
2015-Aug-27 16:32N 20°29' W 086°59'0 0.0
2015-Aug-27 15:32N 20°29' W 086°59'0 0.0
2015-Aug-27 14:32N 20°29' W 086°59'0 0.0
2015-Aug-27 13:32N 20°29' W 086°59'0 0.0
2015-Aug-27 12:32N 20°29' W 086°59'0 0.4
2015-Aug-27 11:33N 20°29' W 086°59'53 8.1
2015-Aug-27 05:00N 19°36' W 087°06'23 1.0 160 / 81015.0 5.4 29.727.532.1
2015-Aug-26 06:00N 19°36' W 086°42'33614.0 1013.010.8 29.527.531.8
2015-Aug-25 06:00N 23°42' W 082°36'   120 / 131013.0 5.4 0.530.028.031.8

Dump ship's entire track history